Time;durP1;ratioP1;P1;durP2;ratioP2;P2;SDS_P1;SDS_P2;PMS_P1;PMS_P2;Temp;Humidity;BMP_temperature;BMP_pressure;BME280_temperature;BME280_humidity;BME280_pressure;Samples;Min_cycle;Max_cycle;Signal;HPM_P1;HPM_P2
2022/11/25 00:02:21;;;;;;;3.28;2.97;;;6.80;99.90;;;;;;4992085;28;20242;-94
2022/11/25 00:04:57;;;;;;;3.10;2.38;;;6.70;99.90;;;;;;4992030;28;20238;-93
2022/11/25 00:07:37;;;;;;;2.25;2.13;;;6.80;99.90;;;;;;4991892;28;20207;-96
2022/11/25 00:10:07;;;;;;;2.88;2.67;;;6.70;99.90;;;;;;4991920;28;20232;-94
2022/11/25 00:12:51;;;;;;;2.10;2.00;;;6.80;99.90;;;;;;4991500;28;20234;-94
2022/11/25 00:15:30;;;;;;;3.75;3.38;;;6.80;99.90;;;;;;4992002;28;20265;-93
2022/11/25 00:18:03;;;;;;;2.28;2.10;;;6.80;99.90;;;;;;4991608;28;20223;-94
2022/11/25 00:20:34;;;;;;;2.95;2.42;;;6.80;99.90;;;;;;4991724;28;20264;-94
2022/11/25 00:23:10;;;;;;;2.08;1.92;;;6.80;99.90;;;;;;4991328;28;20319;-93
2022/11/25 00:25:43;;;;;;;3.47;2.17;;;6.90;99.90;;;;;;4991261;28;20218;-94
2022/11/25 00:28:14;;;;;;;2.83;2.58;;;6.90;99.90;;;;;;4991441;28;20210;-93
2022/11/25 00:30:50;;;;;;;2.38;2.17;;;6.90;99.90;;;;;;4991671;28;20266;-93
2022/11/25 00:33:20;;;;;;;3.65;2.47;;;6.90;99.90;;;;;;4991542;28;20230;-94
2022/11/25 00:35:51;;;;;;;10.20;2.38;;;6.90;99.90;;;;;;4991533;28;20212;-94
2022/11/25 00:38:31;;;;;;;2.08;1.98;;;6.90;99.90;;;;;;4992296;28;20223;-93
2022/11/25 00:46:35;;;;;;;2.63;2.42;;;6.90;99.90;;;;;;4988418;28;20299;-95
2022/11/25 00:49:06;;;;;;;3.50;2.72;;;6.90;99.90;;;;;;4999134;28;20230;-93
2022/11/25 00:51:35;;;;;;;2.10;1.90;;;6.90;99.90;;;;;;4998143;28;20318;-94
2022/11/25 00:54:04;;;;;;;2.92;2.50;;;6.90;99.90;;;;;;4993810;28;20228;-93
2022/11/25 00:56:33;;;;;;;5.28;3.70;;;6.90;99.90;;;;;;4994905;28;20207;-92
2022/11/25 00:59:01;;;;;;;2.38;2.17;;;6.90;99.90;;;;;;4998123;28;20271;-93
2022/11/25 01:01:30;;;;;;;2.92;2.72;;;7.00;99.90;;;;;;4998289;28;20196;-93
2022/11/25 01:03:59;;;;;;;3.22;2.88;;;7.00;99.90;;;;;;4997753;28;20314;-94
2022/11/25 01:06:29;;;;;;;3.60;2.15;;;7.00;99.90;;;;;;4998477;28;20295;-93
2022/11/25 01:08:58;;;;;;;3.03;2.45;;;7.00;99.90;;;;;;4997706;28;20208;-93
2022/11/25 01:11:26;;;;;;;2.08;1.98;;;6.90;99.90;;;;;;4998052;28;20227;-93
2022/11/25 01:13:59;;;;;;;2.38;2.17;;;7.00;99.90;;;;;;4998470;28;20277;-93
2022/11/25 01:16:29;;;;;;;2.45;2.25;;;7.00;99.90;;;;;;4997307;28;20211;-93
2022/11/25 01:18:59;;;;;;;2.50;2.10;;;7.00;99.90;;;;;;4997059;28;20224;-94
2022/11/25 01:21:31;;;;;;;2.60;2.40;;;7.00;99.90;;;;;;4997251;28;20218;-94
2022/11/25 01:24:00;;;;;;;8.95;3.00;;;7.00;99.90;;;;;;4996833;28;20232;-95
2022/11/25 01:26:30;;;;;;;3.47;2.90;;;6.90;99.90;;;;;;4997401;28;20243;-93
2022/11/25 01:29:01;;;;;;;2.40;1.90;;;6.90;99.90;;;;;;4997394;28;20199;-93
2022/11/25 01:31:31;;;;;;;3.50;2.42;;;6.90;99.90;;;;;;4997057;28;20215;-93
2022/11/25 01:34:03;;;;;;;3.47;2.83;;;6.90;99.90;;;;;;4997312;28;20223;-93
2022/11/25 01:36:34;;;;;;;2.30;2.10;;;6.90;99.90;;;;;;4997411;28;20238;-94
2022/11/25 01:39:04;;;;;;;5.15;2.83;;;6.90;99.90;;;;;;4997148;28;20215;-94
2022/11/25 01:41:34;;;;;;;2.13;1.92;;;6.90;99.90;;;;;;4997812;28;20208;-94
2022/11/25 01:44:06;;;;;;;4.82;2.97;;;6.90;99.90;;;;;;4997332;28;20232;-94
2022/11/25 01:46:51;;;;;;;2.65;2.40;;;6.80;99.90;;;;;;4996677;28;20235;-93
2022/11/25 01:49:25;;;;;;;3.25;2.45;;;6.80;99.90;;;;;;4996909;28;20211;-94
2022/11/25 01:51:59;;;;;;;2.28;2.08;;;6.70;99.90;;;;;;4996791;28;20228;-94
2022/11/25 01:54:33;;;;;;;2.40;2.20;;;6.70;99.90;;;;;;4997087;28;20219;-93
2022/11/25 01:57:06;;;;;;;2.63;2.40;;;6.70;99.90;;;;;;4996482;28;20230;-93
2022/11/25 01:59:41;;;;;;;2.50;2.30;;;6.60;99.90;;;;;;5002530;28;20302;-93
2022/11/25 02:02:10;;;;;;;3.33;2.38;;;6.60;99.90;;;;;;5003524;28;20203;-94
2022/11/25 02:04:40;;;;;;;2.72;2.47;;;6.50;99.90;;;;;;4996814;28;20211;-93
2022/11/25 02:07:16;;;;;;;7.88;2.83;;;6.50;99.90;;;;;;4996187;28;20294;-93
2022/11/25 02:09:46;;;;;;;2.55;2.35;;;6.50;99.90;;;;;;4995855;28;20215;-93
2022/11/25 02:12:18;;;;;;;3.03;2.20;;;6.50;99.90;;;;;;4996179;28;20237;-93
2022/11/25 02:14:48;;;;;;;3.45;2.53;;;6.40;99.90;;;;;;4996268;28;20222;-94
2022/11/25 02:17:17;;;;;;;2.10;2.00;;;6.40;99.90;;;;;;4996560;28;20298;-93
2022/11/25 02:19:59;;;;;;;3.05;2.67;;;6.40;99.90;;;;;;4996229;28;20230;-93
2022/11/25 02:22:40;;;;;;;2.13;1.90;;;6.40;99.90;;;;;;4995970;28;20223;-93
2022/11/25 02:25:16;;;;;;;2.45;2.25;;;6.50;99.90;;;;;;4995931;28;20203;-93
2022/11/25 02:27:48;;;;;;;2.10;1.90;;;6.50;99.90;;;;;;4995995;28;20200;-93
2022/11/25 02:30:16;;;;;;;2.75;2.45;;;6.50;99.90;;;;;;4996503;28;20212;-93
2022/11/25 02:32:45;;;;;;;4.20;2.38;;;6.50;99.90;;;;;;4995677;28;20234;-93
2022/11/25 02:35:29;;;;;;;2.92;2.65;;;6.50;99.90;;;;;;4996156;28;20214;-93
2022/11/25 02:38:03;;;;;;;2.50;2.08;;;6.50;99.90;;;;;;4995830;28;20231;-93
2022/11/25 02:40:37;;;;;;;2.47;2.28;;;6.50;99.90;;;;;;4995997;28;20203;-93
2022/11/25 02:43:06;;;;;;;2.63;2.35;;;6.50;99.90;;;;;;4995738;28;20228;-93
2022/11/25 02:45:45;;;;;;;3.13;2.28;;;6.50;99.90;;;;;;4996154;28;20242;-93
2022/11/25 02:48:14;;;;;;;3.10;2.13;;;6.40;99.90;;;;;;4995470;28;20207;-93
2022/11/25 02:50:42;;;;;;;2.78;2.13;;;6.40;99.90;;;;;;4995733;28;20291;-93
2022/11/25 02:53:11;;;;;;;2.10;1.92;;;6.40;99.90;;;;;;4995359;28;20227;-93
2022/11/25 02:55:41;;;;;;;1.95;1.83;;;6.30;99.90;;;;;;4995669;28;20215;-93
2022/11/25 02:58:10;;;;;;;5.07;2.00;;;6.30;99.90;;;;;;4995726;28;20207;-93
2022/11/25 03:00:38;;;;;;;3.47;2.25;;;6.30;99.90;;;;;;4995733;28;20204;-93
2022/11/25 03:03:07;;;;;;;3.00;2.70;;;6.30;99.90;;;;;;4995631;28;20232;-93
2022/11/25 03:05:36;;;;;;;2.45;2.25;;;6.30;99.90;;;;;;4995427;28;20262;-93
2022/11/25 03:08:06;;;;;;;1.92;1.77;;;6.30;99.90;;;;;;4995134;28;20266;-93
2022/11/25 03:10:35;;;;;;;2.22;1.83;;;6.30;99.90;;;;;;5000271;28;20267;-93
2022/11/25 03:13:07;;;;;;;3.35;2.10;;;6.30;99.90;;;;;;5001736;28;20314;-93
2022/11/25 03:15:36;;;;;;;2.47;2.15;;;6.20;99.90;;;;;;4995119;28;20204;-92
2022/11/25 03:18:05;;;;;;;4.28;2.25;;;6.30;99.90;;;;;;4995184;28;20239;-93
2022/11/25 03:20:35;;;;;;;2.63;2.28;;;6.30;99.90;;;;;;4994544;28;20207;-93
2022/11/25 03:23:04;;;;;;;2.03;1.80;;;6.30;99.90;;;;;;4995004;28;20319;-93
2022/11/25 03:25:35;;;;;;;2.92;2.47;;;6.30;99.90;;;;;;4999405;28;20246;-93
2022/11/25 03:28:05;;;;;;;1.98;1.80;;;6.20;99.90;;;;;;4995210;28;20204;-93
2022/11/25 03:30:34;;;;;;;2.88;2.42;;;6.20;99.90;;;;;;4994920;28;20203;-93
2022/11/25 03:33:02;;;;;;;6.15;2.10;;;6.20;99.90;;;;;;4994580;28;20277;-92
2022/11/25 03:35:31;;;;;;;1.52;1.42;;;6.20;99.90;;;;;;4994931;28;20203;-93
2022/11/25 03:37:59;;;;;;;2.17;1.98;;;6.10;99.90;;;;;;4994808;28;20235;-93
2022/11/25 03:40:28;;;;;;;2.55;2.35;;;6.20;99.90;;;;;;4994930;28;20214;-93
2022/11/25 03:42:57;;;;;;;4.22;2.45;;;6.20;99.90;;;;;;4994830;28;20233;-92
2022/11/25 03:45:27;;;;;;;2.03;1.50;;;6.20;99.90;;;;;;4994786;28;20208;-93
2022/11/25 03:47:55;;;;;;;2.78;1.95;;;6.20;99.90;;;;;;4997372;28;20272;-92
2022/11/25 03:50:24;;;;;;;2.17;1.98;;;6.20;99.90;;;;;;4995473;28;20238;-92
2022/11/25 03:52:52;;;;;;;2.08;1.80;;;6.20;99.90;;;;;;4994988;28;20323;-93
2022/11/25 03:55:21;;;;;;;2.05;1.77;;;6.20;99.90;;;;;;4994266;28;20286;-93
2022/11/25 03:57:49;;;;;;;3.03;1.95;;;6.20;99.90;;;;;;4994471;28;20239;-93
2022/11/25 04:00:18;;;;;;;3.22;2.10;;;6.20;99.90;;;;;;4995093;28;20212;-92
2022/11/25 04:02:48;;;;;;;5.95;2.05;;;6.20;99.90;;;;;;4995025;28;20232;-93
2022/11/25 04:05:16;;;;;;;1.75;1.65;;;6.20;99.90;;;;;;4994936;28;20255;-93
2022/11/25 04:07:45;;;;;;;2.00;1.90;;;6.30;99.90;;;;;;4994972;28;20294;-92
2022/11/25 04:10:14;;;;;;;2.10;1.90;;;6.30;99.90;;;;;;4994151;28;20234;-93
2022/11/25 04:12:47;;;;;;;2.92;2.38;;;6.20;99.90;;;;;;4994160;28;20219;-93
2022/11/25 04:15:17;;;;;;;2.67;1.70;;;6.30;99.90;;;;;;4994427;28;20291;-94
2022/11/25 04:17:47;;;;;;;1.90;1.80;;;6.20;99.90;;;;;;4993896;28;20211;-92
2022/11/25 04:20:16;;;;;;;1.90;1.80;;;6.30;99.90;;;;;;4994122;28;20203;-91
2022/11/25 04:22:44;;;;;;;2.65;2.05;;;6.30;99.90;;;;;;5001564;28;20231;-92
2022/11/25 04:25:13;;;;;;;17.45;1.88;;;6.20;99.90;;;;;;4995412;28;20272;-92
2022/11/25 04:27:41;;;;;;;2.15;1.95;;;6.20;99.90;;;;;;4993831;28;20204;-92
2022/11/25 04:30:11;;;;;;;1.63;1.52;;;6.20;99.90;;;;;;4994019;28;20207;-92
2022/11/25 04:32:39;;;;;;;2.00;1.55;;;6.20;99.90;;;;;;4993464;28;20327;-93
2022/11/25 04:35:10;;;;;;;3.85;1.70;;;6.20;99.90;;;;;;4994389;28;20208;-93
2022/11/25 04:37:38;;;;;;;1.60;1.50;;;6.20;99.90;;;;;;4993813;28;20250;-93
2022/11/25 04:40:08;;;;;;;2.35;1.75;;;6.20;99.90;;;;;;4993695;28;20208;-93
2022/11/25 04:42:38;;;;;;;2.35;1.85;;;6.20;99.90;;;;;;4993526;28;20244;-92
2022/11/25 04:45:09;;;;;;;2.58;2.05;;;6.10;99.90;;;;;;4993505;28;20218;-93
2022/11/25 04:47:52;;;;;;;2.05;1.42;;;6.10;99.90;;;;;;4993620;28;20294;-93
2022/11/25 04:50:24;;;;;;;3.55;1.85;;;6.10;99.90;;;;;;4993532;28;20204;-92
2022/11/25 04:52:52;;;;;;;8.13;2.10;;;6.00;99.90;;;;;;4993573;28;20228;-93
2022/11/25 04:55:21;;;;;;;1.90;1.70;;;6.00;99.90;;;;;;4994023;28;20210;-92
2022/11/25 04:57:49;;;;;;;3.03;2.28;;;6.00;99.90;;;;;;4993256;28;20239;-93
2022/11/25 05:00:18;;;;;;;5.03;1.98;;;6.00;99.90;;;;;;4993563;28;20210;-93
2022/11/25 05:02:46;;;;;;;5.80;2.53;;;6.00;99.90;;;;;;4993567;28;20231;-94
2022/11/25 05:05:15;;;;;;;1.92;1.75;;;5.90;99.90;;;;;;4993722;28;20203;-93
2022/11/25 05:07:45;;;;;;;3.38;2.33;;;6.00;99.90;;;;;;4993892;28;20214;-93
2022/11/25 05:10:14;;;;;;;2.63;1.83;;;5.90;99.90;;;;;;4993186;28;20211;-93
2022/11/25 05:12:45;;;;;;;4.57;2.47;;;5.90;99.90;;;;;;4993596;28;20228;-93
2022/11/25 05:15:14;;;;;;;4.75;2.28;;;5.90;99.90;;;;;;4993498;28;20202;-93
2022/11/25 05:17:42;;;;;;;5.70;2.60;;;5.90;99.90;;;;;;4992971;28;20277;-92
2022/11/25 05:20:11;;;;;;;3.22;1.60;;;5.90;99.90;;;;;;4993247;28;20210;-92
2022/11/25 05:22:40;;;;;;;1.88;1.77;;;5.90;99.90;;;;;;4993168;28;20223;-93
2022/11/25 05:25:10;;;;;;;1.67;1.55;;;5.90;99.90;;;;;;4993601;28;20225;-93
2022/11/25 05:27:39;;;;;;;2.45;2.08;;;5.80;99.90;;;;;;4993501;28;20215;-92
2022/11/25 05:30:09;;;;;;;12.20;2.40;;;5.80;99.90;;;;;;4993071;28;20208;-93
2022/11/25 05:32:39;;;;;;;1.55;1.45;;;5.80;99.90;;;;;;4993072;28;20223;-93
2022/11/25 05:35:08;;;;;;;4.82;1.80;;;5.80;99.90;;;;;;4993194;28;20227;-93
2022/11/25 05:37:36;;;;;;;3.45;1.50;;;5.70;99.90;;;;;;4993039;28;20219;-93
2022/11/25 05:40:06;;;;;;;2.05;1.83;;;5.70;99.90;;;;;;4993521;28;20207;-92
2022/11/25 05:42:36;;;;;;;1.58;1.48;;;5.70;99.90;;;;;;4999122;28;20314;-92
2022/11/25 05:45:06;;;;;;;2.40;1.98;;;5.60;99.90;;;;;;4999067;28;20294;-93
2022/11/25 05:47:35;;;;;;;3.40;2.05;;;5.60;99.90;;;;;;4996377;28;20211;-93
2022/11/25 05:50:03;;;;;;;2.08;1.88;;;5.60;99.90;;;;;;4996562;28;20294;-93
2022/11/25 05:52:32;;;;;;;4.13;1.70;;;5.50;99.90;;;;;;4996788;28;20231;-93
2022/11/25 05:55:01;;;;;;;2.20;2.00;;;5.50;99.90;;;;;;4996295;28;20224;-93
2022/11/25 05:57:29;;;;;;;1.77;1.65;;;5.40;99.90;;;;;;4996446;28;20323;-93
2022/11/25 05:59:59;;;;;;;2.83;2.10;;;5.40;99.90;;;;;;4996591;28;20300;-92
2022/11/25 06:02:28;;;;;;;4.82;2.97;;;5.40;99.90;;;;;;4996295;28;20343;-93
2022/11/25 06:04:57;;;;;;;3.88;2.30;;;5.30;99.90;;;;;;4996188;28;20203;-92
2022/11/25 06:07:25;;;;;;;3.92;2.72;;;5.20;99.90;;;;;;4996414;28;20258;-92
2022/11/25 06:09:54;;;;;;;3.42;2.58;;;5.20;99.90;;;;;;4996336;28;20211;-91
2022/11/25 06:12:29;;;;;;;2.88;2.60;;;5.10;99.90;;;;;;4996322;28;20224;-92
2022/11/25 06:14:59;;;;;;;2.47;2.13;;;5.10;99.90;;;;;;4996205;28;20234;-92
2022/11/25 06:17:28;;;;;;;3.22;2.42;;;5.10;99.90;;;;;;4995646;28;20208;-91
2022/11/25 06:19:56;;;;;;;3.35;3.05;;;5.00;99.90;;;;;;4995808;28;20199;-91
2022/11/25 06:22:24;;;;;;;4.40;2.72;;;4.90;99.90;;;;;;4995747;28;20231;-91
2022/11/25 06:24:53;;;;;;;5.13;2.42;;;4.90;99.90;;;;;;4995754;28;20239;-91
2022/11/25 06:27:30;;;;;;;3.13;2.78;;;4.80;99.90;;;;;;4996105;28;20203;-92
2022/11/25 06:30:20;;;;;;;5.07;3.67;;;4.80;99.90;;;;;;4995312;28;20208;-92
2022/11/25 06:32:49;;;;;;;2.92;2.58;;;4.80;99.90;;;;;;4995670;28;20278;-92
2022/11/25 06:35:17;;;;;;;6.30;3.50;;;4.70;99.90;;;;;;4995102;28;20226;-92
2022/11/25 06:37:45;;;;;;;2.75;2.47;;;4.70;99.90;;;;;;4995710;28;20216;-92
2022/11/25 06:40:14;;;;;;;3.15;2.83;;;4.70;99.90;;;;;;4995680;28;20212;-92
2022/11/25 06:42:42;;;;;;;3.08;2.83;;;4.70;99.90;;;;;;4995492;28;20224;-92
2022/11/25 06:45:11;;;;;;;5.55;2.75;;;4.70;99.90;;;;;;4995720;28;20210;-92
2022/11/25 06:47:41;;;;;;;3.70;3.17;;;4.70;99.90;;;;;;4995223;28;20204;-92
2022/11/25 06:50:10;;;;;;;3.47;3.08;;;4.70;99.90;;;;;;4995698;28;20207;-92
2022/11/25 06:52:38;;;;;;;3.03;2.72;;;4.70;99.90;;;;;;4995487;28;20315;-92
2022/11/25 06:55:07;;;;;;;4.65;3.58;;;4.70;99.90;;;;;;4994654;28;20238;-92
2022/11/25 06:57:35;;;;;;;3.13;2.83;;;4.70;99.90;;;;;;4996578;28;20208;-92
2022/11/25 07:00:04;;;;;;;3.88;3.17;;;4.70;99.90;;;;;;5001882;28;20203;-91
2022/11/25 07:02:33;;;;;;;8.20;4.10;;;4.70;99.90;;;;;;4995746;28;20236;-93
2022/11/25 07:05:11;;;;;;;4.65;3.70;;;4.80;99.90;;;;;;4995293;28;20204;-92
2022/11/25 07:07:39;;;;;;;5.07;4.53;;;4.80;99.90;;;;;;4995481;28;20208;-94
2022/11/25 07:10:09;;;;;;;5.00;4.38;;;4.90;99.90;;;;;;4995027;28;20200;-92
2022/11/25 07:12:37;;;;;;;5.38;4.78;;;4.80;99.90;;;;;;4994737;28;20314;-92
2022/11/25 07:15:08;;;;;;;4.38;3.78;;;4.90;99.90;;;;;;4994968;28;20227;-92
2022/11/25 07:17:36;;;;;;;6.63;5.00;;;4.90;99.90;;;;;;4995111;28;20208;-93
2022/11/25 07:20:05;;;;;;;12.70;5.45;;;4.90;99.90;;;;;;4994959;28;20207;-91
2022/11/25 07:22:35;;;;;;;10.25;5.68;;;4.90;99.90;;;;;;4994819;28;20236;-92
2022/11/25 07:25:04;;;;;;;5.95;4.88;;;4.90;99.90;;;;;;4994704;28;20283;-92
2022/11/25 07:27:33;;;;;;;7.45;5.90;;;4.90;99.90;;;;;;4994790;28;20208;-93
2022/11/25 07:30:02;;;;;;;5.72;4.82;;;4.90;99.90;;;;;;4994513;28;20235;-92
2022/11/25 07:32:50;;;;;;;6.13;4.57;;;5.00;99.90;;;;;;4994547;28;20227;-92
2022/11/25 07:35:19;;;;;;;6.55;5.95;;;5.00;99.90;;;;;;4994594;28;20267;-92
2022/11/25 07:37:48;;;;;;;6.28;5.65;;;5.00;99.90;;;;;;4994326;28;20212;-91
2022/11/25 07:40:17;;;;;;;6.45;5.85;;;5.00;99.90;;;;;;4994159;28;20199;-91
2022/11/25 07:42:45;;;;;;;6.55;5.93;;;5.00;99.90;;;;;;4994000;28;20224;-91
2022/11/25 07:45:13;;;;;;;9.80;7.00;;;5.00;99.90;;;;;;4994832;28;20218;-90
2022/11/25 07:48:01;;;;;;;7.18;6.47;;;5.00;99.90;;;;;;4993943;28;20271;-90
2022/11/25 07:50:30;;;;;;;7.88;5.57;;;5.20;99.90;;;;;;4993304;28;20203;-89
2022/11/25 07:53:00;;;;;;;6.50;5.13;;;5.20;99.90;;;;;;4994808;28;20234;-90
2022/11/25 07:55:28;;;;;;;6.93;5.80;;;5.30;99.90;;;;;;4994644;28;20223;-86
2022/11/25 07:57:56;;;;;;;8.82;4.65;;;5.40;99.90;;;;;;4994418;28;20208;-86
2022/11/25 08:00:25;;;;;;;5.13;4.63;;;5.40;99.90;;;;;;4992049;28;20210;-88
2022/11/25 08:03:00;;;;;;;4.03;3.63;;;5.50;99.90;;;;;;4993388;28;20223;-88
2022/11/25 08:05:32;;;;;;;9.98;5.10;;;5.50;99.90;;;;;;4992945;28;20213;-87
2022/11/25 08:08:07;;;;;;;7.22;4.03;;;5.50;99.90;;;;;;4993639;28;20204;-88
2022/11/25 08:10:40;;;;;;;26.73;4.55;;;5.60;99.90;;;;;;4994339;28;20210;-87
2022/11/25 08:13:14;;;;;;;9.30;4.38;;;5.70;99.90;;;;;;4994242;28;20228;-87
2022/11/25 08:15:44;;;;;;;5.78;4.35;;;5.80;99.90;;;;;;4993210;28;20282;-86
2022/11/25 08:18:15;;;;;;;5.95;4.15;;;5.80;99.90;;;;;;4993499;28;20235;-87
2022/11/25 08:20:47;;;;;;;5.22;3.72;;;5.90;99.90;;;;;;4993617;28;20199;-87
2022/11/25 08:23:17;;;;;;;4.80;3.83;;;6.00;99.90;;;;;;4993465;28;20227;-87
2022/11/25 08:25:49;;;;;;;12.32;4.25;;;6.10;99.90;;;;;;4994202;28;20195;-90
2022/11/25 08:28:18;;;;;;;4.72;3.65;;;6.20;99.90;;;;;;4994117;28;20208;-86
2022/11/25 08:30:47;;;;;;;8.98;4.13;;;6.20;99.90;;;;;;4993451;28;20212;-87
2022/11/25 08:33:15;;;;;;;4.45;4.05;;;6.30;99.90;;;;;;4998475;28;20224;-87
2022/11/25 08:35:44;;;;;;;4.20;3.50;;;6.50;99.90;;;;;;4993680;28;20219;-89
2022/11/25 08:38:13;;;;;;;4.43;3.67;;;6.50;99.90;;;;;;4993325;28;20222;-88
2022/11/25 08:40:45;;;;;;;5.22;4.25;;;6.60;99.90;;;;;;4993245;28;20204;-88
2022/11/25 08:43:16;;;;;;;8.65;4.30;;;6.70;99.90;;;;;;4993661;28;20231;-88
2022/11/25 08:45:44;;;;;;;4.32;3.25;;;6.70;99.90;;;;;;4993334;28;20211;-89
2022/11/25 08:48:13;;;;;;;4.03;3.20;;;6.80;99.90;;;;;;4993408;28;20216;-88
2022/11/25 08:50:45;;;;;;;5.78;3.53;;;6.90;99.90;;;;;;4993034;28;20211;-89
2022/11/25 08:53:14;;;;;;;3.50;3.20;;;7.00;99.90;;;;;;4993141;28;20254;-85
2022/11/25 08:55:44;;;;;;;3.13;2.60;;;7.00;99.90;;;;;;4993241;28;20234;-83
2022/11/25 08:58:13;;;;;;;5.82;3.58;;;7.10;99.90;;;;;;4993364;28;20282;-86
2022/11/25 09:00:43;;;;;;;4.03;3.25;;;7.20;99.90;;;;;;4993076;28;20204;-84
2022/11/25 09:03:11;;;;;;;16.98;3.80;;;7.20;99.90;;;;;;4996064;28;20306;-84
2022/11/25 09:05:42;;;;;;;5.07;3.58;;;7.20;99.90;;;;;;4992805;28;20208;-84
2022/11/25 09:08:11;;;;;;;6.22;3.53;;;7.30;99.90;;;;;;4992378;28;20207;-83
2022/11/25 09:10:40;;;;;;;6.60;3.40;;;7.40;99.90;;;;;;4993007;28;20207;-83
2022/11/25 09:13:10;;;;;;;4.85;3.92;;;7.40;99.90;;;;;;4993173;28;20231;-84
2022/11/25 09:15:39;;;;;;;5.00;3.60;;;7.40;99.90;;;;;;4992863;28;20212;-83
2022/11/25 09:18:09;;;;;;;3.42;3.10;;;7.50;99.90;;;;;;4994495;28;20204;-83
2022/11/25 09:20:39;;;;;;;4.20;3.55;;;7.50;99.90;;;;;;4996620;28;20211;-83
2022/11/25 09:23:08;;;;;;;5.93;3.97;;;7.60;99.90;;;;;;4996909;28;20228;-84
2022/11/25 09:25:37;;;;;;;3.20;3.00;;;7.70;99.90;;;;;;4996255;28;20204;-83
2022/11/25 09:28:05;;;;;;;4.82;3.03;;;7.70;99.90;;;;;;4996276;28;20202;-84
2022/11/25 09:30:37;;;;;;;4.22;2.80;;;7.70;99.90;;;;;;4996455;28;20299;-84
2022/11/25 09:33:05;;;;;;;3.03;2.70;;;7.80;99.90;;;;;;4995715;28;20219;-83
2022/11/25 09:35:33;;;;;;;9.95;3.33;;;7.90;99.90;;;;;;4996451;28;20298;-83
2022/11/25 09:38:02;;;;;;;7.50;2.80;;;7.90;99.90;;;;;;4996290;28;20226;-84
2022/11/25 09:40:36;;;;;;;2.80;2.28;;;8.10;99.90;;;;;;4996348;28;20208;-84
2022/11/25 09:49:10;;;;;;;4.53;2.67;;;8.40;99.90;;;;;;4995655;28;20216;-84
2022/11/25 09:51:48;;;;;;;6.03;2.53;;;8.50;99.90;;;;;;4995813;28;20207;-84
2022/11/25 09:54:21;;;;;;;3.90;2.45;;;8.60;99.90;;;;;;4996283;28;20227;-84
2022/11/25 09:56:53;;;;;;;3.80;2.53;;;8.80;99.90;;;;;;4995819;28;20227;-84
2022/11/25 09:59:28;;;;;;;2.40;2.20;;;8.90;99.90;;;;;;4995720;28;20204;-84
2022/11/25 10:02:02;;;;;;;3.08;2.00;;;9.10;99.90;;;;;;4995586;28;20199;-84
2022/11/25 10:04:36;;;;;;;5.38;2.17;;;9.30;99.90;;;;;;4996030;28;20231;-84
2022/11/25 10:07:11;;;;;;;4.55;2.13;;;9.60;99.90;;;;;;4995726;28;20192;-84
2022/11/25 10:09:40;;;;;;;4.72;2.53;;;9.80;99.90;;;;;;4995700;28;20203;-84
2022/11/25 10:12:27;;;;;;;2.58;2.25;;;10.00;99.90;;;;;;4995704;28;20218;-84
2022/11/25 10:15:00;;;;;;;3.13;2.45;;;10.50;99.90;;;;;;4994800;28;20203;-84
2022/11/25 10:17:39;;;;;;;2.55;2.25;;;10.80;99.90;;;;;;4995343;28;20219;-84
2022/11/25 10:20:16;;;;;;;2.45;2.25;;;11.20;99.90;;;;;;4995762;28;20208;-84
2022/11/25 10:22:48;;;;;;;2.47;1.95;;;11.40;99.90;;;;;;4995001;28;20293;-83
2022/11/25 10:25:19;;;;;;;5.75;2.72;;;11.60;99.90;;;;;;4994926;28;20211;-84
2022/11/25 10:27:51;;;;;;;4.25;2.20;;;11.70;99.90;;;;;;4995053;28;20196;-85
2022/11/25 10:30:22;;;;;;;4.53;2.28;;;11.80;99.90;;;;;;4994130;28;20215;-84
2022/11/25 10:33:05;;;;;;;1.55;1.25;;;12.00;99.90;;;;;;4995055;28;20232;-84
2022/11/25 10:35:38;;;;;;;2.38;1.70;;;12.20;99.90;;;;;;4995401;28;20218;-84
2022/11/25 10:38:13;;;;;;;3.63;1.95;;;12.50;99.90;;;;;;4994112;28;20210;-84
2022/11/25 10:40:49;;;;;;;3.95;1.85;;;12.60;99.90;;;;;;4994693;28;20203;-84
2022/11/25 10:43:18;;;;;;;2.40;2.03;;;12.70;99.90;;;;;;4994697;28;20274;-82
2022/11/25 10:45:54;;;;;;;2.80;1.40;;;12.80;99.90;;;;;;4994669;28;20207;-82
2022/11/25 10:48:42;;;;;;;3.58;2.67;;;12.90;99.90;;;;;;4996085;28;20204;-82
2022/11/25 10:51:30;;;;;;;3.92;3.05;;;13.20;99.90;;;;;;4994612;28;20200;-82
2022/11/25 10:54:12;;;;;;;5.45;3.30;;;13.00;99.90;;;;;;4992279;28;20222;-81
2022/11/25 10:56:48;;;;;;;4.78;3.17;;;13.30;99.90;;;;;;4994513;28;20219;-82
2022/11/25 10:59:23;;;;;;;3.50;2.83;;;13.30;99.90;;;;;;4989266;28;20230;-82
2022/11/25 11:01:53;;;;;;;7.72;2.65;;;13.50;99.90;;;;;;4994670;28;20204;-82
2022/11/25 11:04:26;;;;;;;3.13;2.55;;;13.40;99.90;;;;;;4994141;28;20200;-82
2022/11/25 11:06:54;;;;;;;3.13;2.83;;;13.50;99.90;;;;;;4994225;28;20200;-82
2022/11/25 11:09:34;;;;;;;4.93;3.28;;;13.90;99.90;;;;;;4994527;28;20204;-82
2022/11/25 11:12:15;;;;;;;5.07;2.88;;;13.90;99.90;;;;;;4994680;28;20209;-82
2022/11/25 11:14:43;;;;;;;5.30;2.88;;;13.80;99.90;;;;;;4994617;28;20207;-81
2022/11/25 11:17:29;;;;;;;2.97;2.03;;;14.00;99.90;;;;;;4994023;28;20243;-81
2022/11/25 11:20:18;;;;;;;2.90;2.10;;;14.20;99.90;;;;;;4993809;28;20254;-81
2022/11/25 11:22:52;;;;;;;2.92;2.20;;;14.10;99.90;;;;;;4993865;28;20231;-81
2022/11/25 11:25:32;;;;;;;2.80;2.38;;;14.10;99.90;;;;;;4993858;28;20204;-81
2022/11/25 11:28:01;;;;;;;2.88;2.47;;;14.30;99.90;;;;;;4993712;28;20279;-81
2022/11/25 11:30:31;;;;;;;3.83;3.35;;;14.30;99.90;;;;;;4993617;28;20203;-81
2022/11/25 11:33:05;;;;;;;3.00;2.75;;;14.60;99.90;;;;;;4993752;28;20234;-82
2022/11/25 11:35:47;;;;;;;3.97;3.22;;;14.50;99.90;;;;;;4993779;28;20207;-84
2022/11/25 11:38:31;;;;;;;3.92;3.42;;;14.40;99.90;;;;;;4993393;28;20233;-82
2022/11/25 11:41:07;;;;;;;4.50;3.00;;;14.30;99.90;;;;;;4993855;28;20208;-82
2022/11/25 11:43:59;;;;;;;4.93;2.92;;;14.40;99.90;;;;;;4993757;28;20230;-83
2022/11/25 11:46:38;;;;;;;5.85;2.80;;;14.30;99.90;;;;;;4993670;28;20212;-84
2022/11/25 11:49:35;;;;;;;7.30;2.75;;;14.30;99.90;;;;;;4993641;28;20275;-83
2022/11/25 11:52:11;;;;;;;3.88;2.72;;;14.20;99.90;;;;;;4991924;28;20214;-84
2022/11/25 11:54:45;;;;;;;3.22;2.65;;;14.00;99.90;;;;;;4993718;28;20303;-82
2022/11/25 11:57:24;;;;;;;6.07;3.10;;;13.80;99.90;;;;;;4993149;28;20219;-83
2022/11/25 11:59:54;;;;;;;3.53;2.47;;;13.60;99.90;;;;;;4993803;28;20214;-85
2022/11/25 12:02:40;;;;;;;4.88;2.72;;;13.50;99.90;;;;;;4993211;28;20227;-83
2022/11/25 12:05:17;;;;;;;3.58;2.40;;;13.30;99.90;;;;;;4993578;28;20196;-86
2022/11/25 12:07:58;;;;;;;4.18;3.20;;;13.30;99.90;;;;;;4993438;28;20196;-85
2022/11/25 12:10:30;;;;;;;2.75;2.40;;;13.30;99.90;;;;;;4993332;28;20210;-85
2022/11/25 12:13:05;;;;;;;4.07;3.38;;;13.60;99.90;;;;;;4993360;28;20263;-85
2022/11/25 12:15:41;;;;;;;5.43;3.80;;;13.90;99.90;;;;;;4993103;28;20217;-86
2022/11/25 12:18:22;;;;;;;6.13;4.35;;;14.20;99.90;;;;;;4993054;28;20231;-86
2022/11/25 12:20:57;;;;;;;6.38;4.32;;;14.20;99.90;;;;;;4993603;28;20214;-86
2022/11/25 12:23:35;;;;;;;13.25;4.68;;;14.50;99.90;;;;;;4993095;28;20234;-86
2022/11/25 12:26:11;;;;;;;10.73;4.70;;;14.80;99.90;;;;;;4993139;28;20214;-86
2022/11/25 12:28:43;;;;;;;3.85;3.55;;;15.00;99.90;;;;;;4993125;28;20211;-86
2022/11/25 12:31:16;;;;;;;4.05;3.25;;;15.30;99.90;;;;;;4993055;28;20210;-86
2022/11/25 12:33:55;;;;;;;6.45;3.60;;;15.70;99.90;;;;;;4993249;28;20322;-86
2022/11/25 12:36:32;;;;;;;4.47;3.35;;;15.60;99.90;;;;;;4993115;28;20210;-86
2022/11/25 12:39:05;;;;;;;3.08;2.80;;;15.70;99.90;;;;;;4992569;28;20230;-86
2022/11/25 12:41:42;;;;;;;2.65;2.28;;;15.90;99.90;;;;;;4993122;28;20207;-86
2022/11/25 12:44:16;;;;;;;4.07;2.80;;;16.00;99.90;;;;;;4993262;28;20238;-86
2022/11/25 12:46:46;;;;;;;2.50;2.25;;;16.00;99.90;;;;;;4992719;28;20217;-86
2022/11/25 12:49:20;;;;;;;2.63;2.15;;;16.20;99.90;;;;;;4992876;28;20226;-86
2022/11/25 12:52:16;;;;;;;4.03;2.33;;;16.40;99.90;;;;;;4992993;28;20283;-86
2022/11/25 12:55:05;;;;;;;7.70;3.03;;;16.50;99.90;;;;;;4996762;28;20235;-86
2022/11/25 12:58:22;;;;;;;4.53;2.88;;;16.30;99.90;;;;;;4996751;28;20224;-86
2022/11/25 13:01:13;;;;;;;6.93;3.03;;;16.40;99.90;;;;;;4996900;28;20207;-86
2022/11/25 13:04:10;;;;;;;3.97;3.25;;;16.30;99.90;;;;;;4996568;28;20258;-86
2022/11/25 13:07:01;;;;;;;3.22;2.60;;;16.30;99.90;;;;;;4964182;28;20215;-86
2022/11/25 13:09:47;;;;;;;3.97;2.78;;;16.60;99.90;;;;;;4987961;28;20226;-86
2022/11/25 13:12:26;;;;;;;4.15;2.75;;;16.60;99.90;;;;;;4997163;28;20239;-86
2022/11/25 13:15:14;;;;;;;3.42;2.70;;;16.60;99.90;;;;;;4996980;28;20207;-86
2022/11/25 13:17:45;;;;;;;4.25;2.45;;;16.60;99.90;;;;;;4996597;28;20211;-86
2022/11/25 13:20:42;;;;;;;2.83;2.53;;;16.60;99.90;;;;;;4996380;28;20207;-84
2022/11/25 13:23:29;;;;;;;2.67;2.47;;;16.40;99.90;;;;;;4994021;28;20220;-84
2022/11/25 13:26:39;;;;;;;2.30;2.10;;;16.10;99.90;;;;;;4995785;28;20239;-86
2022/11/25 13:30:02;;;;;;;5.10;2.30;;;15.60;99.90;;;;;;4980002;28;20231;-86
2022/11/25 13:32:48;;;;;;;2.58;1.92;;;15.30;99.90;;;;;;4995576;28;20223;-87
2022/11/25 13:35:36;;;;;;;3.85;2.22;;;15.30;99.90;;;;;;4996003;28;20218;-86
2022/11/25 13:38:09;;;;;;;4.40;3.05;;;15.00;99.90;;;;;;4995093;28;20215;-86